createdAt,value
2019-06-26T00:01:01.914Z,101073.98
2019-06-26T00:02:06.479Z,101073.01
2019-06-26T00:03:11.624Z,101066.41
2019-06-26T00:04:16.224Z,101069.66
2019-06-26T00:06:15.942Z,101070.89
2019-06-26T00:07:38.292Z,101067.45
2019-06-26T00:08:43.459Z,101067.30
2019-06-26T00:09:48.111Z,101069.14
2019-06-26T00:10:53.544Z,101074.55
2019-06-26T00:11:58.095Z,101066.25
2019-06-26T00:13:03.163Z,101066.72
2019-06-26T00:14:08.045Z,101065.84
2019-06-26T00:15:13.541Z,101065.44
2019-06-26T00:16:18.038Z,101066.78
2019-06-26T00:17:23.046Z,101063.58
2019-06-26T00:18:27.630Z,101061.31
2019-06-26T00:19:32.870Z,101063.52
2019-06-26T00:20:37.310Z,101065.33
2019-06-26T00:21:42.348Z,101060.44
2019-06-26T00:22:47.106Z,101063.52
2019-06-26T00:23:52.131Z,101059.66
2019-06-26T00:24:56.901Z,101065.42
2019-06-26T00:26:02.246Z,101063.68
2019-06-26T00:27:06.674Z,101064.80
2019-06-26T00:28:11.992Z,101062.13
2019-06-26T00:29:16.759Z,101062.53
2019-06-26T00:30:21.894Z,101064.91
2019-06-26T00:31:26.384Z,101057.34
2019-06-26T00:32:31.392Z,101061.35
2019-06-26T00:33:35.879Z,101059.70
2019-06-26T00:34:40.887Z,101061.98
2019-06-26T00:35:46.679Z,101065.99
2019-06-26T00:36:51.681Z,101060.37
2019-06-26T00:37:56.497Z,101064.28
2019-06-26T00:39:01.547Z,101062.27
2019-06-26T00:40:07.919Z,101065.09
2019-06-26T00:41:12.935Z,101056.98
2019-06-26T00:42:17.362Z,101058.56
2019-06-26T00:43:22.790Z,101060.46
2019-06-26T00:44:27.230Z,101060.46
2019-06-26T00:45:33.306Z,101061.43
2019-06-26T00:46:37.802Z,101058.66
2019-06-26T00:47:43.248Z,101056.08
2019-06-26T00:48:48.069Z,101059.12
2019-06-26T00:49:53.083Z,101059.59
2019-06-26T00:50:57.505Z,101054.24
2019-06-26T00:52:02.519Z,101049.86
2019-06-26T00:53:07.011Z,101052.06
2019-06-26T00:54:12.376Z,101052.62
2019-06-26T00:55:16.937Z,101051.66
2019-06-26T00:56:22.994Z,101050.63
2019-06-26T00:57:27.427Z,101050.23
2019-06-26T00:58:33.800Z,101058.97
2019-06-26T00:59:39.346Z,101053.77
2019-06-26T01:00:50.431Z,101055.52
2019-06-26T01:01:54.470Z,101053.77
2019-06-26T01:02:59.576Z,101052.69
2019-06-26T01:04:05.637Z,101057.20
2019-06-26T01:05:12.064Z,101054.02
2019-06-26T01:06:34.048Z,101048.20
2019-06-26T01:07:38.822Z,101048.77
2019-06-26T01:08:44.731Z,101051.84
2019-06-26T01:09:49.467Z,101045.69
2019-06-26T01:10:54.877Z,101050.77
2019-06-26T01:12:00.370Z,101049.02
2019-06-26T01:13:05.451Z,101046.81
2019-06-26T01:14:10.212Z,101042.55
2019-06-26T01:15:15.696Z,101044.75
2019-06-26T01:16:20.133Z,101044.66
2019-06-26T01:17:25.485Z,101038.84
2019-06-26T01:18:29.939Z,101045.38
2019-06-26T01:19:35.019Z,101034.58
2019-06-26T01:20:39.443Z,101044.04
2019-06-26T01:21:44.512Z,101044.41
2019-06-26T01:22:48.948Z,101043.78
2019-06-26T01:23:54.013Z,101037.72
2019-06-26T01:24:58.426Z,101042.61
2019-06-26T01:26:03.451Z,101035.45
2019-06-26T01:27:07.909Z,101040.03
2019-06-26T01:28:12.921Z,101037.09
2019-06-26T01:29:17.386Z,101036.69
2019-06-26T01:30:23.633Z,101038.59
2019-06-26T01:31:28.296Z,101035.14
2019-06-26T01:32:33.347Z,101036.95
2019-06-26T01:33:37.773Z,101033.70
2019-06-26T01:34:42.825Z,101038.13
2019-06-26T01:35:47.247Z,101035.23
2019-06-26T01:36:52.261Z,101035.92
2019-06-26T01:37:56.685Z,101030.25
2019-06-26T01:39:02.058Z,101026.80
2019-06-26T01:40:08.298Z,101033.03
2019-06-26T01:41:13.725Z,101047.89
2019-06-26T01:42:18.148Z,101034.21
2019-06-26T01:43:24.226Z,101039.97
2019-06-26T01:44:29.157Z,101035.61
2019-06-26T01:45:34.463Z,101036.57
2019-06-26T01:46:38.922Z,101038.06
2019-06-26T01:47:45.003Z,101038.22
2019-06-26T01:48:49.426Z,101032.59
2019-06-26T01:49:54.439Z,101034.87
2019-06-26T01:50:58.901Z,101036.30
2019-06-26T01:52:04.277Z,101035.52
2019-06-26T01:53:08.997Z,101034.55
2019-06-26T01:54:14.056Z,101035.12
2019-06-26T01:55:18.542Z,101032.03
2019-06-26T01:56:23.625Z,101026.87
2019-06-26T01:57:28.055Z,101026.31
2019-06-26T01:58:33.111Z,101032.44
2019-06-26T01:59:37.919Z,101033.00
2019-06-26T02:00:43.157Z,101034.80
2019-06-26T02:01:47.881Z,101035.27
2019-06-26T02:02:52.970Z,101028.77
2019-06-26T02:03:57.556Z,101034.49
2019-06-26T02:05:02.643Z,101030.11
2019-06-26T02:06:07.147Z,101027.90
2019-06-26T02:07:12.910Z,101024.36
2019-06-26T02:08:17.370Z,101026.25
2019-06-26T02:09:22.480Z,101027.90
2019-06-26T02:10:27.108Z,101028.77
2019-06-26T02:11:32.183Z,101024.55
2019-06-26T02:12:36.678Z,101027.22
2019-06-26T02:13:41.758Z,101026.66
2019-06-26T02:14:46.318Z,101023.23
2019-06-26T02:15:51.623Z,101027.34
2019-06-26T02:16:56.361Z,101027.99
2019-06-26T02:18:01.377Z,101024.55
2019-06-26T02:19:10.672Z,101020.28
2019-06-26T02:20:16.330Z,101017.61
2019-06-26T02:21:20.922Z,101021.09
2019-06-26T02:22:25.930Z,101022.02
2019-06-26T02:23:30.897Z,101020.78
2019-06-26T02:24:36.013Z,101011.95
2019-06-26T02:25:40.488Z,101019.97
2019-06-26T02:26:45.573Z,101016.02
2019-06-26T02:27:50.361Z,101017.91
2019-06-26T02:28:55.364Z,101022.39
2019-06-26T02:29:59.830Z,101016.67
2019-06-26T02:31:05.027Z,101014.65
2019-06-26T02:32:09.481Z,101014.65
2019-06-26T02:33:14.502Z,101012.91
2019-06-26T02:34:19.030Z,101016.36
2019-06-26T02:35:24.377Z,101014.70
2019-06-26T02:36:29.084Z,101013.83
2019-06-26T02:37:34.095Z,101013.05
2019-06-26T02:38:38.854Z,101013.55
2019-06-26T02:39:43.854Z,101008.67
2019-06-26T02:40:48.353Z,101019.52
2019-06-26T02:41:53.635Z,101016.06
2019-06-26T02:42:58.231Z,101018.27
2019-06-26T02:44:03.419Z,101013.39
2019-06-26T02:45:08.152Z,101015.29
2019-06-26T02:46:13.225Z,101009.16
2019-06-26T02:47:20.461Z,101012.77
2019-06-26T02:48:24.354Z,101006.95
2019-06-26T02:49:28.786Z,101010.09
2019-06-26T02:50:33.906Z,101010.09
2019-06-26T02:51:38.665Z,101013.73
2019-06-26T02:52:43.682Z,101008.75
2019-06-26T02:53:48.098Z,101003.19
2019-06-26T02:54:53.161Z,101008.94
2019-06-26T02:55:57.587Z,101006.27
2019-06-26T02:57:02.879Z,101007.05
2019-06-26T02:58:07.375Z,101003.91
2019-06-26T02:59:12.387Z,101003.04
2019-06-26T03:00:18.217Z,101005.16
2019-06-26T03:01:23.258Z,100997.51
2019-06-26T03:02:27.693Z,100995.23
2019-06-26T03:03:32.758Z,100992.10
2019-06-26T03:04:37.176Z,100996.23
2019-06-26T03:05:42.184Z,100997.42
2019-06-26T03:06:46.612Z,100992.39
2019-06-26T03:07:51.650Z,100997.17
2019-06-26T03:08:56.123Z,100989.28
2019-06-26T03:10:01.112Z,100992.36
2019-06-26T03:11:05.777Z,100994.34
2019-06-26T03:12:10.861Z,100996.46
2019-06-26T03:13:16.502Z,100993.03
2019-06-26T03:14:22.352Z,101000.81
2019-06-26T03:15:26.822Z,101003.33
2019-06-26T03:16:31.830Z,101004.98
2019-06-26T03:17:36.605Z,101005.28
2019-06-26T03:18:41.686Z,101012.81
2019-06-26T03:19:46.552Z,100999.89
2019-06-26T03:20:56.674Z,101006.02
2019-06-26T03:22:01.131Z,101006.80
2019-06-26T03:23:06.208Z,100996.86
2019-06-26T03:24:10.636Z,100999.84
2019-06-26T03:25:16.282Z,101002.33
2019-06-26T03:26:20.931Z,100994.80
2019-06-26T03:27:25.949Z,100999.19
2019-06-26T03:28:30.447Z,101001.86
2019-06-26T03:29:35.457Z,101002.17
2019-06-26T03:30:39.952Z,100993.42
2019-06-26T03:31:44.970Z,100996.00
2019-06-26T03:32:49.498Z,100989.71
2019-06-26T03:33:54.503Z,100993.22
2019-06-26T03:34:58.937Z,100990.49
2019-06-26T03:36:04.278Z,100988.02
2019-06-26T03:37:08.708Z,100987.19
2019-06-26T03:38:13.901Z,100993.21
2019-06-26T03:39:19.190Z,100984.61
2019-06-26T03:40:24.455Z,100986.16
2019-06-26T03:41:28.922Z,100988.67
2019-06-26T03:42:34.929Z,100989.64
2019-06-26T03:43:39.579Z,100993.09
2019-06-26T03:44:44.873Z,100992.69
2019-06-26T03:45:49.412Z,100992.31
2019-06-26T03:46:54.492Z,100986.46
2019-06-26T03:47:59.027Z,100990.81
2019-06-26T03:49:04.185Z,100987.73
2019-06-26T03:50:09.681Z,100987.97
2019-06-26T03:51:14.765Z,100984.42
2019-06-26T03:52:19.393Z,100987.03
2019-06-26T03:53:24.475Z,100979.41
2019-06-26T03:54:28.942Z,100987.73
2019-06-26T03:55:33.954Z,100988.00
2019-06-26T03:56:38.677Z,100984.75
2019-06-26T03:57:43.685Z,100985.16
2019-06-26T03:58:48.463Z,100983.34
2019-06-26T03:59:53.614Z,100988.23
2019-06-26T04:00:58.438Z,100988.23
2019-06-26T04:02:03.447Z,100989.58
2019-06-26T04:03:07.931Z,100992.73
2019-06-26T04:04:13.321Z,100989.58
2019-06-26T04:05:17.849Z,100989.94
2019-06-26T04:06:23.220Z,100990.91
2019-06-26T04:07:27.832Z,100989.67
2019-06-26T04:08:33.318Z,100990.91
2019-06-26T04:09:38.095Z,100986.70
2019-06-26T04:10:43.773Z,100991.95
2019-06-26T04:11:48.529Z,100990.14
2019-06-26T04:12:53.569Z,100989.00
2019-06-26T04:13:58.242Z,100991.98
2019-06-26T04:15:03.665Z,100994.02
2019-06-26T04:16:08.548Z,100996.50
2019-06-26T04:17:13.553Z,100996.05
2019-06-26T04:18:18.121Z,100996.82
2019-06-26T04:19:23.124Z,101001.34
2019-06-26T04:20:27.620Z,100999.91
2019-06-26T04:21:32.951Z,100998.12
2019-06-26T04:22:37.874Z,101001.33
2019-06-26T04:23:43.132Z,101004.27
2019-06-26T04:24:47.960Z,101008.69
2019-06-26T04:25:52.715Z,101007.75
2019-06-26T04:26:57.371Z,101009.85
2019-06-26T04:28:06.142Z,101007.06
2019-06-26T04:29:08.980Z,101007.53
2019-06-26T04:30:14.813Z,101010.11
2019-06-26T04:31:19.287Z,101007.08
2019-06-26T04:32:24.604Z,101004.40
2019-06-26T04:33:30.145Z,101013.30
2019-06-26T04:34:35.462Z,101011.96
2019-06-26T04:35:40.016Z,101009.28
2019-06-26T04:36:45.350Z,101015.78
2019-06-26T04:37:49.873Z,101011.11
2019-06-26T04:38:54.927Z,101017.42
2019-06-26T04:39:59.414Z,101017.60
2019-06-26T04:41:04.490Z,101011.00
2019-06-26T04:42:08.999Z,101015.68
2019-06-26T04:43:14.129Z,101023.08
2019-06-26T04:44:18.613Z,101019.81
2019-06-26T04:45:23.945Z,101018.69
2019-06-26T04:46:28.495Z,101014.44
2019-06-26T04:47:33.850Z,101017.13
2019-06-26T04:48:38.592Z,101020.38
2019-06-26T04:49:43.713Z,101012.31
2019-06-26T04:50:48.413Z,101013.62
2019-06-26T04:51:53.421Z,101016.69
2019-06-26T04:52:58.257Z,101006.40
2019-06-26T04:54:03.585Z,101016.26
2019-06-26T04:55:09.736Z,101010.19
2019-06-26T04:56:15.118Z,101013.61
2019-06-26T04:57:19.635Z,101016.27
2019-06-26T04:58:24.708Z,101011.74
2019-06-26T04:59:29.432Z,101007.69
2019-06-26T05:00:35.512Z,101007.06
2019-06-26T05:01:40.404Z,101003.95
2019-06-26T05:02:45.483Z,101009.45
2019-06-26T05:03:50.216Z,101007.59
2019-06-26T05:04:56.400Z,101009.17
2019-06-26T05:06:01.107Z,101005.45
2019-06-26T05:07:06.224Z,101014.03
2019-06-26T05:08:10.667Z,101004.56
2019-06-26T05:09:15.678Z,101004.87
2019-06-26T05:10:20.348Z,101004.02
2019-06-26T05:11:25.353Z,101003.11
2019-06-26T05:12:29.882Z,101004.64
2019-06-26T05:13:35.363Z,101004.34
2019-06-26T05:14:40.123Z,100994.84
2019-06-26T05:15:45.190Z,100992.59
2019-06-26T05:16:50.021Z,100997.19
2019-06-26T05:17:55.036Z,101004.59
2019-06-26T05:18:59.781Z,101003.98
2019-06-26T05:20:09.256Z,100995.69
2019-06-26T05:21:13.812Z,101000.48
2019-06-26T05:22:19.127Z,100998.34
2019-06-26T05:23:23.542Z,101000.23
2019-06-26T05:24:28.886Z,100991.32
2019-06-26T05:25:33.369Z,100993.94
2019-06-26T05:26:38.606Z,100994.73
2019-06-26T05:27:43.342Z,100992.64
2019-06-26T05:28:48.350Z,100989.09
2019-06-26T05:29:54.482Z,100989.16
2019-06-26T05:30:59.964Z,100989.07
2019-06-26T05:32:04.885Z,100988.94
2019-06-26T05:33:09.924Z,100995.45
2019-06-26T05:34:15.422Z,100990.55
2019-06-26T05:35:20.904Z,100985.54
2019-06-26T05:36:25.328Z,100989.59
2019-06-26T05:37:30.441Z,100989.11
2019-06-26T05:38:34.862Z,100992.67
2019-06-26T05:39:40.013Z,100985.80
2019-06-26T05:40:44.471Z,100983.48
2019-06-26T05:41:49.476Z,100989.01
2019-06-26T05:42:54.210Z,100987.30
2019-06-26T05:43:59.285Z,100991.98
2019-06-26T05:45:04.184Z,100986.36
2019-06-26T05:46:09.326Z,100988.70
2019-06-26T05:47:13.838Z,100989.20
2019-06-26T05:48:18.881Z,100994.14
2019-06-26T05:49:23.372Z,100988.48
2019-06-26T05:50:28.755Z,100994.64
2019-06-26T05:51:33.308Z,100996.60
2019-06-26T05:52:42.185Z,100999.65
2019-06-26T05:53:44.473Z,100992.55
2019-06-26T05:54:49.814Z,100998.29
2019-06-26T05:55:54.216Z,100998.55
2019-06-26T05:57:00.642Z,100998.56
2019-06-26T05:58:05.177Z,101005.67
2019-06-26T05:59:10.519Z,101004.44
2019-06-26T06:00:15.753Z,101000.64
2019-06-26T06:01:20.931Z,100999.55
2019-06-26T06:02:25.352Z,101001.39
2019-06-26T06:03:30.690Z,100999.66
2019-06-26T06:04:35.124Z,100996.95
2019-06-26T06:05:40.640Z,100999.05
2019-06-26T06:06:45.459Z,101004.08
2019-06-26T06:07:50.786Z,101005.72
2019-06-26T06:08:55.578Z,100999.52
2019-06-26T06:10:00.581Z,100993.51
2019-06-26T06:11:05.448Z,100995.59
2019-06-26T06:12:10.780Z,100997.16
2019-06-26T06:13:15.246Z,100998.05
2019-06-26T06:14:20.249Z,100997.32
2019-06-26T06:15:24.748Z,101001.62
2019-06-26T06:16:45.964Z,100995.70
2019-06-26T06:17:36.838Z,100997.44
2019-06-26T06:18:41.835Z,100995.81
2019-06-26T06:19:46.314Z,101001.70
2019-06-26T06:20:51.363Z,100998.21
2019-06-26T06:21:55.782Z,100995.64
2019-06-26T06:23:00.794Z,100999.18
2019-06-26T06:24:05.988Z,100998.11
2019-06-26T06:25:11.394Z,101000.18
2019-06-26T06:26:15.891Z,100999.17
2019-06-26T06:27:20.990Z,101000.33
2019-06-26T06:28:25.453Z,100999.84
2019-06-26T06:29:30.920Z,101002.80
2019-06-26T06:30:35.459Z,101000.14
2019-06-26T06:31:40.811Z,101002.55
2019-06-26T06:32:45.631Z,101000.22
2019-06-26T06:33:50.641Z,101003.42
2019-06-26T06:34:55.588Z,101002.27
2019-06-26T06:36:00.937Z,101004.39
2019-06-26T06:37:05.396Z,101001.25
2019-06-26T06:38:10.755Z,100999.69
2019-06-26T06:39:15.244Z,101002.47
2019-06-26T06:40:20.328Z,101004.42
2019-06-26T06:41:24.750Z,101005.30
2019-06-26T06:42:29.795Z,101006.05
2019-06-26T06:43:34.492Z,101004.81
2019-06-26T06:44:39.513Z,101004.33
2019-06-26T06:45:44.111Z,101004.69
2019-06-26T06:47:02.944Z,101003.21
2019-06-26T06:47:55.580Z,101001.03
2019-06-26T06:49:00.597Z,101006.66
2019-06-26T06:50:06.958Z,100993.55
2019-06-26T06:51:12.274Z,101003.98
2019-06-26T06:52:16.942Z,101002.51
2019-06-26T06:53:22.074Z,100998.23
2019-06-26T06:54:26.476Z,101002.19
2019-06-26T06:55:31.647Z,101003.59
2019-06-26T06:56:36.132Z,101004.73
2019-06-26T06:57:41.207Z,100999.09
2019-06-26T06:58:45.623Z,101006.17
2019-06-26T06:59:51.045Z,100998.71
2019-06-26T07:00:55.537Z,100997.92
2019-06-26T07:02:00.556Z,101000.81
2019-06-26T07:03:05.620Z,101005.38
2019-06-26T07:04:10.658Z,100998.43
2019-06-26T07:05:15.213Z,100990.86
2019-06-26T07:06:20.225Z,100996.50
2019-06-26T07:07:24.650Z,100994.66
2019-06-26T07:08:29.692Z,101000.30
2019-06-26T07:09:34.112Z,100991.66
2019-06-26T07:10:39.118Z,101000.17
2019-06-26T07:11:43.541Z,100994.66
2019-06-26T07:12:48.544Z,101000.22
2019-06-26T07:13:53.974Z,101000.86
2019-06-26T07:14:59.064Z,100999.10
2019-06-26T07:16:03.483Z,100996.75
2019-06-26T07:17:19.995Z,100998.60
2019-06-26T07:18:14.659Z,101000.52
2019-06-26T07:19:19.668Z,101005.77
2019-06-26T07:20:24.091Z,101000.77
2019-06-26T07:21:29.167Z,101003.17
2019-06-26T07:22:33.624Z,101009.27
2019-06-26T07:23:38.630Z,101003.13
2019-06-26T07:24:43.056Z,101006.55
2019-06-26T07:25:48.068Z,101007.70
2019-06-26T07:26:52.868Z,101010.47
2019-06-26T07:28:01.632Z,101010.05
2019-06-26T07:29:04.376Z,101005.97
2019-06-26T07:30:10.420Z,101009.38
2019-06-26T07:31:14.912Z,101007.84
2019-06-26T07:32:20.276Z,101006.37
2019-06-26T07:33:24.759Z,101000.52
2019-06-26T07:34:29.770Z,101003.50
2019-06-26T07:35:34.428Z,100994.50
2019-06-26T07:36:39.434Z,100999.09
2019-06-26T07:37:44.160Z,100997.73
2019-06-26T07:38:49.212Z,100999.94
2019-06-26T07:39:58.772Z,100994.50
2019-06-26T07:41:00.795Z,100993.94
2019-06-26T07:42:05.354Z,100999.48
2019-06-26T07:43:10.407Z,101000.64
2019-06-26T07:44:15.124Z,101000.32
2019-06-26T07:45:23.890Z,100997.04
2019-06-26T07:46:26.465Z,101006.92
2019-06-26T07:47:42.603Z,101005.64
2019-06-26T07:48:37.710Z,100997.40
2019-06-26T07:49:42.751Z,100997.07
2019-06-26T07:50:47.504Z,101004.93
2019-06-26T07:51:52.576Z,101002.30
2019-06-26T07:52:57.004Z,100998.92
2019-06-26T07:54:02.417Z,101005.72
2019-06-26T07:55:11.581Z,101008.20
2019-06-26T07:56:14.432Z,101005.88
2019-06-26T07:57:19.306Z,101005.84
2019-06-26T07:58:24.721Z,101003.98
2019-06-26T07:59:29.216Z,101008.11
2019-06-26T08:00:34.312Z,101009.80
2019-06-26T08:01:38.718Z,101009.21
2019-06-26T08:02:43.726Z,101012.13
2019-06-26T08:03:48.624Z,101011.84
2019-06-26T08:04:53.625Z,101010.63
2019-06-26T08:05:58.052Z,101007.27
2019-06-26T08:07:03.201Z,101011.14
2019-06-26T08:08:07.725Z,101009.09
2019-06-26T08:09:13.143Z,101013.34
2019-06-26T08:10:17.784Z,101013.67
2019-06-26T08:11:22.996Z,101008.62
2019-06-26T08:12:27.786Z,101010.69
2019-06-26T08:13:33.122Z,101010.48
2019-06-26T08:14:37.942Z,101012.53
2019-06-26T08:15:43.018Z,101010.87
2019-06-26T08:16:47.740Z,101010.27
2019-06-26T08:18:00.400Z,101013.02
2019-06-26T08:18:58.868Z,101014.77
2019-06-26T08:20:03.936Z,101012.89
2019-06-26T08:21:12.706Z,101010.63
2019-06-26T08:22:15.533Z,101009.31
2019-06-26T08:23:19.962Z,101012.70
2019-06-26T08:24:25.108Z,101014.73
2019-06-26T08:25:29.926Z,101011.56
2019-06-26T08:26:34.927Z,101012.76
2019-06-26T08:27:39.706Z,101016.78
2019-06-26T08:28:44.746Z,101012.54
2019-06-26T08:29:49.443Z,101012.97
2019-06-26T08:30:54.518Z,101015.78
2019-06-26T08:31:59.047Z,101009.22
2019-06-26T08:33:04.277Z,101011.65
2019-06-26T08:34:08.698Z,101015.83
2019-06-26T08:35:14.123Z,101018.23
2019-06-26T08:36:18.910Z,101015.04
2019-06-26T08:37:23.952Z,101011.72
2019-06-26T08:38:28.370Z,101012.44
2019-06-26T08:39:34.436Z,101011.64
2019-06-26T08:40:39.243Z,101012.16
2019-06-26T08:41:44.283Z,101015.94
2019-06-26T08:42:48.694Z,101014.06
2019-06-26T08:43:53.700Z,101011.16
2019-06-26T08:44:58.113Z,101019.23
2019-06-26T08:46:03.167Z,101016.91
2019-06-26T08:47:07.886Z,101010.79
2019-06-26T08:48:22.945Z,101013.66
2019-06-26T08:49:25.413Z,101015.39
2019-06-26T08:50:25.714Z,101018.43
2019-06-26T08:51:30.513Z,101008.45
2019-06-26T08:52:35.523Z,101015.96
2019-06-26T08:53:39.941Z,101016.83
2019-06-26T08:54:44.949Z,101011.73
2019-06-26T08:55:49.413Z,101017.19
2019-06-26T08:56:54.436Z,101014.17
2019-06-26T08:57:58.935Z,101018.12
2019-06-26T08:59:03.972Z,101015.89
2019-06-26T09:00:10.357Z,101018.30
2019-06-26T09:01:15.526Z,101019.55
2019-06-26T09:02:20.141Z,101013.59
2019-06-26T09:03:25.244Z,101020.31
2019-06-26T09:04:29.663Z,101015.64
2019-06-26T09:05:47.611Z,101020.95
2019-06-26T09:06:41.082Z,101019.05
2019-06-26T09:07:46.079Z,101019.59
2019-06-26T09:08:50.843Z,101022.72
2019-06-26T09:09:56.121Z,101023.07
2019-06-26T09:11:00.968Z,101014.52
2019-06-26T09:12:06.051Z,101018.62
2019-06-26T09:13:10.549Z,101015.88
2019-06-26T09:14:15.530Z,101019.66
2019-06-26T09:15:20.315Z,101012.66
2019-06-26T09:16:25.387Z,101023.08
2019-06-26T09:17:30.065Z,101023.44
2019-06-26T09:18:36.214Z,101022.74
2019-06-26T09:19:40.805Z,101027.69
2019-06-26T09:20:45.842Z,101026.81
2019-06-26T09:21:50.418Z,101021.69
2019-06-26T09:22:55.519Z,101028.55
2019-06-26T09:23:59.956Z,101026.50
2019-06-26T09:25:20.779Z,101020.88
2019-06-26T09:26:14.870Z,101025.81
2019-06-26T09:27:19.968Z,101022.72
2019-06-26T09:28:24.430Z,101024.07
2019-06-26T09:29:29.433Z,101021.31
2019-06-26T09:30:34.219Z,101022.00
2019-06-26T09:31:39.220Z,101014.81
2019-06-26T09:32:43.735Z,101018.95
2019-06-26T09:33:49.010Z,101016.37
2019-06-26T09:34:53.725Z,101017.90
2019-06-26T09:35:59.002Z,101014.86
2019-06-26T09:37:03.546Z,101017.58
2019-06-26T09:38:08.519Z,101015.86
2019-06-26T09:39:13.079Z,101019.31
2019-06-26T09:40:18.661Z,101021.84
2019-06-26T09:41:24.046Z,101015.20
2019-06-26T09:42:29.117Z,101020.48
2019-06-26T09:43:33.529Z,101012.75
2019-06-26T09:44:38.570Z,101014.66
2019-06-26T09:45:43.059Z,101018.17
2019-06-26T09:46:48.407Z,101016.83
2019-06-26T09:47:53.231Z,101015.11
2019-06-26T09:48:58.297Z,101018.14
2019-06-26T09:50:03.748Z,101015.66
2019-06-26T09:51:08.879Z,101013.06
2019-06-26T09:52:13.283Z,101013.13
2019-06-26T09:53:18.636Z,101005.33
2019-06-26T09:54:23.078Z,101009.85
2019-06-26T09:55:28.148Z,101004.60
2019-06-26T09:56:32.807Z,101002.14
2019-06-26T09:57:37.961Z,101012.44
2019-06-26T09:58:42.370Z,101005.59
2019-06-26T09:59:47.703Z,101001.76
2019-06-26T10:00:52.256Z,101000.61
2019-06-26T10:01:57.252Z,101005.41
2019-06-26T10:03:01.713Z,101002.27
2019-06-26T10:04:06.773Z,101004.54
2019-06-26T10:05:11.975Z,101010.92
2019-06-26T10:06:17.299Z,101003.37
2019-06-26T10:07:21.983Z,101007.45
2019-06-26T10:08:27.285Z,100998.34
2019-06-26T10:09:32.074Z,101000.09
2019-06-26T10:10:37.035Z,100999.09
2019-06-26T10:11:41.448Z,101001.39
2019-06-26T10:12:46.595Z,101001.46
2019-06-26T10:13:51.485Z,101005.39
2019-06-26T10:14:56.467Z,101000.51
2019-06-26T10:16:00.922Z,101009.60
2019-06-26T10:17:06.058Z,101004.34
2019-06-26T10:18:10.487Z,101001.06
2019-06-26T10:19:15.471Z,101005.93
2019-06-26T10:20:20.375Z,101002.18
2019-06-26T10:21:25.812Z,100999.17
2019-06-26T10:22:30.566Z,101000.78
2019-06-26T10:23:35.771Z,101000.92
2019-06-26T10:24:40.147Z,101000.77
2019-06-26T10:25:45.159Z,100994.50
2019-06-26T10:26:49.913Z,100995.23
2019-06-26T10:27:55.030Z,100998.64
2019-06-26T10:28:59.460Z,100990.19
2019-06-26T10:30:06.035Z,100990.24
2019-06-26T10:31:10.581Z,100986.60
2019-06-26T10:32:15.926Z,100990.28
2019-06-26T10:33:20.534Z,100991.75
2019-06-26T10:34:25.573Z,100990.13
2019-06-26T10:35:30.263Z,100983.38
2019-06-26T10:36:35.544Z,100986.36
2019-06-26T10:37:40.033Z,100981.56
2019-06-26T10:38:45.375Z,100983.38
2019-06-26T10:39:49.750Z,100983.69
2019-06-26T10:40:55.729Z,100989.27
2019-06-26T10:42:00.256Z,100985.14
2019-06-26T10:43:05.506Z,100978.63
2019-06-26T10:44:10.190Z,100986.60
2019-06-26T10:45:15.570Z,100982.03
2019-06-26T10:46:20.112Z,100981.31
2019-06-26T10:47:26.611Z,100978.23
2019-06-26T10:48:31.100Z,100983.12
2019-06-26T10:49:36.159Z,100980.74
2019-06-26T10:50:49.823Z,100980.11
2019-06-26T10:51:47.573Z,100975.66
2019-06-26T10:52:52.215Z,100977.20
2019-06-26T10:53:57.275Z,100973.59
2019-06-26T10:55:01.698Z,100969.11
2019-06-26T10:56:06.904Z,100967.58
2019-06-26T10:57:11.774Z,100963.19
2019-06-26T10:58:17.168Z,100968.00
2019-06-26T10:59:21.998Z,100968.83
2019-06-26T11:00:27.616Z,100970.41
2019-06-26T11:01:32.349Z,100973.78
2019-06-26T11:02:37.783Z,100971.16
2019-06-26T11:03:42.202Z,100973.67
2019-06-26T11:04:47.723Z,100968.62
2019-06-26T11:05:52.223Z,100962.34
2019-06-26T11:06:58.517Z,100957.57
2019-06-26T11:08:03.001Z,100962.11
2019-06-26T11:09:09.223Z,100959.83
2019-06-26T11:10:16.043Z,100951.40
2019-06-26T11:11:21.341Z,100958.42
2019-06-26T11:12:25.753Z,100950.45
2019-06-26T11:13:30.847Z,100950.78
2019-06-26T11:14:35.302Z,100948.50
2019-06-26T11:15:40.481Z,100946.70
2019-06-26T11:16:44.917Z,100950.86
2019-06-26T11:17:49.928Z,100952.93
2019-06-26T11:18:54.329Z,100950.62
2019-06-26T11:19:59.442Z,100943.09
2019-06-26T11:21:03.970Z,100943.16
2019-06-26T11:22:09.042Z,100942.38
2019-06-26T11:23:13.794Z,100942.32
2019-06-26T11:24:18.780Z,100949.16
2019-06-26T11:25:23.598Z,100941.51
2019-06-26T11:26:28.600Z,100945.50
2019-06-26T11:27:33.983Z,100946.14
2019-06-26T11:28:38.989Z,100940.86
2019-06-26T11:29:43.708Z,100945.55
2019-06-26T11:30:48.733Z,100936.69
2019-06-26T11:31:53.184Z,100942.88
2019-06-26T11:32:58.232Z,100938.30
2019-06-26T11:34:02.656Z,100934.05
2019-06-26T11:35:08.358Z,100933.28
2019-06-26T11:36:12.816Z,100939.91
2019-06-26T11:37:17.943Z,100933.95
2019-06-26T11:38:22.356Z,100941.98
2019-06-26T11:39:27.688Z,100930.22
2019-06-26T11:40:32.218Z,100933.13
2019-06-26T11:41:37.682Z,100936.01
2019-06-26T11:42:42.208Z,100931.37
2019-06-26T11:43:47.207Z,100924.70
2019-06-26T11:44:52.003Z,100927.75
2019-06-26T11:45:57.375Z,100917.73
2019-06-26T11:47:02.128Z,100921.95
2019-06-26T11:48:07.318Z,100924.61
2019-06-26T11:49:12.046Z,100922.66
2019-06-26T11:50:17.757Z,100912.48
2019-06-26T11:51:22.248Z,100915.42
2019-06-26T11:52:27.700Z,100923.41
2019-06-26T11:53:32.489Z,100913.98
2019-06-26T11:54:37.500Z,100913.71
2019-06-26T11:55:41.930Z,100913.44
2019-06-26T11:56:46.983Z,100912.95
2019-06-26T11:57:51.871Z,100901.61
2019-06-26T11:58:56.881Z,100906.25
2019-06-26T12:00:01.969Z,100905.02
2019-06-26T12:01:08.228Z,100901.13
2019-06-26T12:02:12.849Z,100909.38
2019-06-26T12:03:17.986Z,100908.13
2019-06-26T12:04:22.513Z,100914.27
2019-06-26T12:05:27.579Z,100912.27
2019-06-26T12:06:31.995Z,100914.51
2019-06-26T12:07:37.141Z,100915.45
2019-06-26T12:08:41.926Z,100908.95
2019-06-26T12:09:46.989Z,100909.28
2019-06-26T12:10:51.462Z,100906.07
2019-06-26T12:11:56.490Z,100910.97
2019-06-26T12:13:04.063Z,100915.13
2019-06-26T12:14:08.065Z,100913.33
2019-06-26T12:15:13.265Z,100910.00
2019-06-26T12:16:18.642Z,100914.61
2019-06-26T12:17:23.343Z,100913.47
2019-06-26T12:18:28.417Z,100911.17
2019-06-26T12:19:33.100Z,100912.55
2019-06-26T12:20:38.521Z,100902.09
2019-06-26T12:21:42.948Z,100902.19
2019-06-26T12:22:47.954Z,100903.88
2019-06-26T12:23:52.680Z,100905.49